Date,TemperatureHighF,TemperatureAvgF,TemperatureLowF,DewpointHighF,DewpointAvgF,DewpointLowF,HumidityHigh,HumidityAvg,HumidityLow,PressureMaxIn,PressureMinIn,WindSpeedMaxMPH,WindSpeedAvgMPH,GustSpeedMaxMPH,PrecipitationSumIn
2014-1-1,53,35,23,22,6,-13,71,38,10,29.82,29.66,17,3,17,0.00
2014-1-2,47,33,23,12,7,-2,47,33,17,29.88,29.76,8,0,8,0.00
2014-1-3,50,35,25,16,10,3,53,37,15,29.77,29.50,13,1,13,0.00
2014-1-4,40,27,13,17,5,-7,50,39,16,29.58,29.36,25,5,27,0.00
2014-1-5,33,20,11,3,-9,-22,52,30,10,29.73,29.57,27,4,27,0.00
2014-1-6,14,11,9,-8,-10,-13,44,37,28,29.80,29.72,0,0,0,0.00
2014-1-14,42,35,28,5,3,-1,35,26,17,29.91,29.83,12,2,12,0.06
2014-1-15,49,32,22,14,10,5,53,40,23,29.92,29.77,10,1,10,0.00
2014-1-16,43,30,26,13,10,2,53,42,25,29.81,29.75,5,0,7,0.00
2014-1-17,50,36,24,11,6,2,43,29,16,29.82,29.73,10,1,12,0.00
2014-1-18,54,37,25,16,11,6,51,36,15,29.84,29.72,11,1,11,0.00
2014-1-19,54,39,28,18,13,10,50,36,18,29.86,29.73,13,2,13,0.00
2014-1-20,54,36,24,18,10,-5,55,36,14,29.93,29.74,9,1,9,0.00
2014-1-21,54,37,27,7,-1,-9,35,21,10,29.97,29.79,11,1,11,0.00
2014-1-22,44,32,24,12,7,4,47,35,19,29.80,29.55,9,0,9,0.00
2014-1-23,44,32,24,13,10,8,60,41,24,29.93,29.57,14,2,14,0.00
2014-1-24,46,28,16,17,12,7,72,52,26,29.97,29.87,9,1,11,0.00
2014-1-25,47,32,23,18,13,10,63,46,25,29.90,29.68,10,1,10,0.00
2014-1-26,51,35,22,14,10,7,55,38,17,29.68,29.53,14,2,14,0.00
2014-1-27,53,37,25,16,11,5,53,36,15,29.62,29.46,25,6,27,0.00
2014-1-28,52,37,28,10,-4,-16,36,19,10,29.70,29.51,21,6,22,0.00
2014-1-29,49,33,19,8,-1,-8,33,24,12,29.71,29.53,11,1,11,0.00
2014-1-30,43,37,32,34,23,7,87,60,31,29.53,29.34,19,2,22,0.21
2014-1-31,41,35,28,32,28,22,90,75,51,29.39,29.28,30,9,30,0.02
2014-2-1,38,29,20,28,20,10,90,73,35,29.55,29.33,19,6,22,0.06
2014-2-2,35,25,15,17,11,6,75,57,39,29.62,29.52,11,3,11,0.00
2014-2-3,33,27,21,22,18,11,81,69,54,29.53,29.36,11,2,13,0.01
2014-2-4,44,23,15,39,17,8,85,76,60,29.55,29.35,24,5,24,0.02
2014-2-5,31,20,10,15,9,4,78,63,44,29.64,29.55,10,3,10,0.01
2014-2-6,32,25,16,21,16,8,77,67,56,29.59,29.50,11,3,11,0.00
2014-2-7,36,29,25,29,22,19,86,76,57,29.63,29.47,24,4,24,0.08
2014-2-8,44,33,26,29,24,19,83,71,50,29.74,29.62,17,3,17,0.01
2014-2-9,43,38,30,33,30,24,83,74,61,29.72,29.60,9,2,9,0.00
2014-2-10,53,40,33,35,27,14,86,62,32,29.64,29.51,22,5,27,0.01
2014-2-11,47,36,27,18,12,5,46,36,23,29.69,29.58,21,5,21,0.00
2014-2-12,50,36,25,20,14,5,56,40,27,29.76,29.64,14,4,14,0.00
2014-2-13,58,42,29,27,22,18,66,47,24,29.73,29.60,24,4,27,0.00
2014-2-14,56,47,41,30,26,23,52,44,32,29.73,29.64,25,6,25,0.00
2014-2-15,61,47,36,29,21,8,62,40,15,29.77,29.68,14,4,14,0.00
2014-2-16,56,44,36,24,17,5,48,34,19,29.73,29.57,31,6,31,0.00
2014-2-17,58,43,32,14,2,-6,30,18,10,29.82,29.65,14,5,17,0.00
2014-2-18,61,44,31,15,8,-1,35,23,10,29.71,29.62,14,4,16,0.00
2014-2-19,54,41,29,27,14,-1,69,34,17,29.62,29.27,40,8,44,0.14
2014-2-20,41,28,20,4,-5,-17,39,25,10,29.69,29.42,33,11,33,0.06
2014-2-21,49,32,18,7,2,-4,45,30,14,29.67,29.55,21,5,21,0.00
2014-2-22,51,38,29,12,8,-4,41,29,12,29.60,29.50,28,7,30,0.00
2014-2-23,56,40,28,16,8,0,49,29,10,29.70,29.59,22,5,23,0.00
2014-2-24,59,42,29,12,3,-5,35,21,10,29.72,29.63,23,6,23,0.00
2014-2-25,59,44,31,13,6,1,56,22,10,29.69,29.55,23,6,23,0.00
2014-2-26,40,35,32,13,12,10,45,38,31,29.62,29.59,5,2,5,0.00
2014-2-27,34,33,32,29,28,28,84,83,82,29.44,29.42,14,7,14,0.21
2014-2-28,45,36,27,30,26,21,84,68,45,29.59,29.44,12,4,12,0.01
2014-3-1,39,36,33,33,26,-11,90,73,13,29.54,29.45,12,3,12,0.32
2014-3-2,51,38,31,39,29,19,91,73,33,29.70,29.46,19,3,19,0.32
2014-3-3,52,39,29,31,25,19,70,59,38,29.73,29.65,17,5,17,0.00
2014-3-4,49,38,30,34,26,22,72,63,47,29.67,29.51,21,4,21,0.01
2014-3-6,50,46,42,23,21,14,44,38,23,29.62,29.56,15,4,15,0.05
2014-3-7,50,40,33,34,22,13,75,49,28,29.58,29.47,21,6,21,0.00
2014-3-8,52,39,31,23,18,13,60,43,23,29.90,29.58,14,4,15,0.00
2014-3-9,60,42,27,23,16,5,51,35,19,29.90,29.78,12,4,14,0.00
2014-3-10,64,44,35,24,17,5,50,37,10,29.81,29.60,23,5,26,0.00
2014-3-12,52,43,33,6,0,-6,31,18,10,29.78,29.74,11,4,13,0.00
2014-3-13,56,43,30,23,12,4,47,30,15,29.78,29.55,15,5,17,0.00
2014-3-14,54,43,34,28,24,21,62,47,29,29.67,29.58,18,4,18,0.00
2014-3-15,49,38,30,26,13,-4,82,42,16,29.79,29.58,36,9,36,0.14
2014-3-16,62,42,25,9,2,-3,35,20,10,29.84,29.69,19,5,21,0.00
2014-3-17,59,45,31,17,6,-4,41,22,10,29.70,29.20,35,10,36,0.06
2014-3-18,49,36,25,4,0,-9,35,22,10,29.59,29.23,24,8,24,0.00
2014-3-19,51,36,23,8,2,-6,41,26,10,29.77,29.58,17,4,17,0.00
2014-3-20,58,40,25,6,-1,-13,37,20,10,29.77,29.60,21,4,21,0.00
2014-3-21,61,45,31,6,-4,-13,22,13,10,29.60,29.52,22,4,26,0.19
2014-3-22,54,42,31,22,9,-2,38,26,13,29.70,29.57,32,6,32,0.00
2014-3-23,56,43,32,14,4,-4,36,21,10,29.77,29.66,27,7,27,0.00
2014-3-24,65,49,36,7,-2,-13,26,12,10,29.75,29.66,19,7,21,0.00
2014-3-25,65,49,34,19,5,-3,32,18,10,29.76,29.52,18,4,18,0.00
2014-3-26,53,44,33,31,24,6,83,50,15,29.54,29.22,39,9,39,0.85
2014-3-27,50,38,33,30,22,2,83,59,15,29.54,29.33,26,9,27,0.05
2014-3-28,56,43,31,20,7,-8,57,28,10,29.79,29.54,22,6,22,0.19
2014-3-29,60,44,30,11,5,-1,32,22,10,29.84,29.67,15,4,19,0.19
2014-3-30,59,44,35,34,11,0,68,27,14,29.67,29.40,39,8,39,0.87
2014-3-31,35,30,27,15,14,12,57,51,40,29.57,29.53,16,2,16,0.00
2014-4-1,60,53,44,6,-2,-9,14,10,10,29.46,29.36,34,15,34,0.04
2014-4-2,46,39,29,30,20,-7,85,52,11,29.46,29.37,21,7,22,0.01
2014-4-3,51,36,27,29,20,5,87,59,16,29.67,29.37,17,5,17,0.07
2014-4-4,50,39,26,17,9,-2,49,32,11,29.68,29.53,12,5,13,0.00
2014-4-5,49,42,32,40,19,6,97,40,28,29.54,29.46,17,5,17,0.09
2014-4-6,56,42,31,22,15,6,59,37,15,29.60,29.46,30,7,30,0.00
2014-4-7,58,45,30,21,12,0,57,31,10,29.81,29.58,32,9,32,0.00
2014-4-8,69,55,33,21,13,3,49,22,10,29.88,29.76,19,6,19,0.00
2014-4-9,49,44,38,13,12,11,32,27,22,29.82,29.79,6,3,6,0.00
2014-4-11,71,60,41,16,8,-4,29,13,10,28.98,28.85,22,6,22,0.04
2014-4-12,66,52,42,30,14,-7,42,24,10,28.86,28.67,34,5,34,0.00
2014-4-13,53,44,34,36,25,13,78,48,25,28.75,28.61,39,7,39,0.01
2014-4-14,56,42,28,18,2,-11,52,23,10,28.99,28.74,31,7,31,0.00
2014-4-15,61,44,28,8,1,-12,37,18,10,29.00,28.77,26,6,26,0.00
2014-4-16,61,47,35,21,7,-11,43,20,10,28.82,28.72,31,8,31,0.01
2014-4-17,64,49,34,21,16,7,47,30,11,28.98,28.82,18,6,20,0.00
2014-4-18,71,56,42,27,17,7,38,24,10,28.99,28.85,18,6,23,0.00
2014-4-19,64,52,43,41,34,25,83,54,25,28.99,28.89,19,4,23,0.09
2014-4-20,73,56,39,37,28,16,69,39,12,29.00,28.90,20,6,20,0.00
2014-4-21,75,59,46,30,22,11,43,27,10,29.07,28.95,22,6,26,0.00
2014-4-22,70,58,46,36,25,14,45,29,15,29.01,28.73,28,7,31,0.00
2014-4-23,60,52,40,25,12,-2,39,22,10,28.82,28.71,28,11,30,0.01
2014-4-24,63,46,29,13,4,-11,39,19,10,28.97,28.82,20,6,20,0.00
2014-4-25,68,53,37,10,2,-11,20,12,10,28.90,28.69,17,6,22,0.00
2014-4-26,56,44,30,32,21,9,85,46,18,28.72,28.48,47,8,47,0.12
2014-4-27,50,38,28,32,22,13,88,59,25,28.71,28.53,38,8,38,0.14
2014-4-28,50,40,32,20,9,-8,49,30,10,28.93,28.68,34,12,34,0.04
2014-4-29,50,40,28,10,7,0,45,27,13,29.00,28.92,18,6,18,0.00
2014-4-30,56,44,33,18,6,-3,38,22,10,29.02,28.92,18,7,19,0.00
2014-5-1,64,48,32,21,11,-1,48,26,10,29.05,28.93,23,6,23,0.00
2014-5-2,72,55,36,18,12,7,36,20,10,29.04,28.90,18,6,19,0.00
2014-5-3,76,57,43,24,18,11,40,24,10,29.01,28.94,23,6,23,0.00
2014-5-5,73,64,55,13,6,-1,10,10,10,29.57,29.55,21,6,21,0.00
2014-5-6,66,56,47,20,8,-2,31,16,10,29.56,29.38,20,6,20,0.20
2014-5-7,58,48,41,24,12,0,49,25,10,29.52,29.40,34,8,34,0.00
2014-5-8,54,42,33,37,27,22,80,57,31,29.67,29.51,21,4,21,0.11
2014-5-9,61,49,35,30,21,12,63,37,15,29.68,29.55,27,7,27,0.00
2014-5-10,69,55,39,28,20,11,45,26,11,29.59,29.37,24,7,26,0.00
2014-5-11,58,45,35,39,30,22,83,59,27,29.53,29.31,26,7,29,0.08
2014-5-12,45,38,33,34,31,28,86,77,57,29.74,29.52,16,4,16,0.00
2014-5-13,51,38,31,33,28,21,87,68,41,29.96,29.74,13,3,13,0.08
2014-5-14,51,44,29,22,16,10,58,35,19,29.99,29.96,12,5,12,0.00
2014-5-15,51,51,51,16,16,16,24,24,24,29.96,29.96,6,6,10,0.00
2014-5-16,73,66,59,16,12,9,18,12,10,29.69,29.67,25,6,25,0.00
2014-5-17,80,64,48,28,18,8,38,19,10,29.70,29.61,34,7,34,0.06
2014-5-18,77,64,50,25,14,2,32,15,10,29.65,29.53,21,6,21,0.00
2014-5-19,78,63,47,17,7,-6,20,11,10,29.65,29.55,26,7,26,0.00
2014-5-20,76,62,48,16,7,-3,18,11,10,29.70,29.61,24,6,24,0.00
2014-5-21,74,63,50,23,11,3,25,14,10,29.73,29.63,24,6,27,0.00
2014-5-22,71,62,53,31,22,12,38,23,11,29.77,29.66,29,6,34,0.00
2014-5-23,68,52,44,43,38,28,81,63,26,29.81,29.69,32,6,32,0.13
2014-5-24,65,51,40,39,36,32,83,60,29,29.74,29.64,27,6,27,0.04
2014-5-25,43,41,40,38,36,35,86,83,80,29.69,29.64,13,3,17,0.00
2014-5-26,72,62,39,44,33,24,85,38,17,29.77,29.67,23,8,23,0.01
2014-5-27,83,66,51,34,25,16,40,23,10,29.84,29.74,29,6,29,0.00
2014-5-28,86,72,58,33,25,14,33,18,10,29.83,29.68,17,7,17,0.00
2014-5-29,83,71,61,41,32,21,43,26,11,29.80,29.68,21,7,21,0.00
2014-6-3,76,68,62,16,10,5,10,10,10,28.92,28.90,7,3,8,0.01
2014-6-4,84,69,52,21,12,0,18,11,10,28.95,28.87,22,6,22,0.00
2014-6-5,88,71,52,25,12,-2,15,10,10,28.93,28.84,21,6,23,0.00
2014-6-6,85,66,54,22,8,-2,11,10,10,28.90,28.84,24,4,24,0.00
2014-6-8,76,65,-5,39,26,-29,37,25,10,28.96,28.81,42,12,42,0.21
2014-6-9,81,63,40,66,18,6,81,21,10,29.01,28.88,18,7,18,0.28
2014-6-10,86,68,-20,23,13,-60,19,12,10,28.99,28.87,109,7,109,0.00
2014-6-11,83,66,56,53,13,5,86,13,10,28.90,28.83,31,7,31,0.00
2014-6-12,86,70,54,36,20,5,30,16,10,29.01,28.90,28,6,28,0.00
2014-6-13,82,69,54,31,19,8,29,16,10,28.99,28.79,111,8,111,0.01
2014-6-14,77,65,52,22,13,6,25,14,10,28.84,28.74,34,8,34,0.01
2014-6-16,75,71,61,15,12,4,10,10,10,29.64,29.58,21,8,22,0.01
2014-6-17,80,66,50,28,15,-4,34,15,10,29.69,29.58,30,10,30,0.00
2014-6-18,74,64,38,32,21,-14,40,21,10,29.68,29.62,27,8,27,0.00
2014-6-19,80,64,48,21,16,5,30,17,10,29.81,29.67,22,6,22,0.00
2014-6-20,86,69,52,23,14,3,20,13,10,29.84,29.71,17,6,20,0.00
2014-6-21,103,70,-1,44,18,-44,42,14,10,29.77,29.67,54,7,54,0.00
2014-6-22,84,71,57,28,18,9,23,14,10,29.74,29.64,25,6,25,0.00
2014-6-23,88,72,57,26,20,10,27,14,10,29.77,29.68,17,6,17,0.00
2014-6-24,88,75,56,25,16,4,16,11,10,29.80,29.69,17,6,19,0.05
2014-6-25,87,74,55,24,15,8,18,11,10,29.78,29.66,17,6,17,0.00
2014-6-26,85,71,55,22,14,4,19,11,10,29.72,29.57,19,6,19,0.00
2014-6-27,79,69,57,32,23,10,31,19,10,29.60,29.55,30,10,122,0.00
2014-6-28,86,71,59,33,23,12,36,18,10,29.74,29.58,23,8,24,0.00
2014-6-29,89,75,58,26,22,15,24,14,10,29.80,29.70,22,8,23,0.00
2014-6-30,92,78,62,40,23,13,25,13,10,29.75,29.65,24,7,24,0.09
2014-7-1,91,77,56,27,20,11,20,12,10,29.75,29.64,21,7,25,0.09
2014-7-2,88,74,-2,48,36,-31,49,27,10,29.85,29.73,104,6,104,0.01
2014-7-3,87,72,58,43,36,24,52,30,12,29.91,29.79,29,6,29,0.00
2014-7-4,88,69,57,45,40,35,55,38,15,29.93,29.83,18,5,18,0.00
2014-7-6,89,72,-19,38,26,-58,29,19,10,29.82,29.76,62,11,62,0.02
2014-7-7,88,75,62,42,36,-46,40,26,11,29.85,29.75,21,6,21,0.00
2014-7-8,80,66,62,52,42,34,62,42,22,29.82,29.02,33,6,36,0.00
2014-7-9,62,58,55,47,46,44,66,62,57,29.18,29.12,4,2,4,0.00
2014-7-11,88,74,-12,54,43,-53,79,38,10,29.18,28.98,34,6,34,0.57
2014-7-12,82,67,58,59,52,48,81,61,34,29.16,29.07,19,6,20,0.05
2014-7-13,87,72,60,56,48,42,58,45,22,29.19,29.06,15,4,103,0.00
2014-7-14,85,66,-22,52,46,-41,94,52,27,29.17,29.05,35,7,35,0.00
2014-7-15,84,70,58,55,50,22,84,52,18,29.20,28.97,14,5,14,0.08
2014-7-16,85,69,56,52,48,40,68,49,21,29.06,28.90,23,5,23,0.00
2014-7-17,90,72,56,53,38,18,72,38,10,28.99,28.89,19,6,19,0.00
2014-7-18,89,74,57,46,33,21,48,26,10,29.05,28.96,19,6,26,0.00
2014-7-19,90,77,64,45,33,24,36,22,10,29.07,28.97,23,6,27,0.00
2014-7-20,91,77,63,42,35,24,39,24,10,29.09,29.00,18,8,19,0.00
2014-7-21,123,77,65,84,33,20,41,23,10,29.14,29.06,19,6,19,0.00
2014-7-22,97,79,-26,52,30,-64,60,19,10,29.27,29.09,24,7,24,0.20
2014-7-23,83,76,63,54,45,43,70,36,25,29.30,29.09,18,6,18,0.01
2014-7-24,87,77,2,55,46,-42,74,35,10,29.95,29.17,25,7,25,0.12
2014-7-25,90,76,64,51,43,28,56,34,12,29.88,29.75,23,6,23,0.00
2014-7-26,92,73,63,45,41,27,47,34,10,29.88,29.09,18,4,20,0.00
2014-7-27,91,73,58,54,45,20,74,40,10,29.24,29.09,27,6,29,0.04
2014-7-28,80,66,59,56,53,49,83,65,34,29.25,29.14,21,5,21,0.30
2014-7-29,78,66,58,61,51,41,84,61,37,29.18,29.04,21,5,21,0.04
2014-7-30,85,71,60,50,45,39,63,42,20,29.10,29.01,24,6,24,0.00
2014-7-31,77,68,58,56,49,44,68,52,35,29.12,29.02,23,4,23,0.02
2014-8-1,78,65,57,54,49,43,69,57,33,29.13,29.03,23,5,23,0.02
2014-8-2,84,64,54,55,48,41,82,61,23,29.18,29.06,17,4,19,0.65
2014-8-3,80,67,58,53,50,38,81,57,22,29.18,29.05,17,5,19,0.00
2014-8-4,80,65,32,58,52,8,83,66,10,29.14,29.06,17,5,17,0.27
2014-8-5,81,69,56,55,46,32,81,49,17,29.14,29.05,17,5,17,0.01
2014-8-6,68,59,55,43,38,37,52,46,37,29.11,29.06,7,3,7,0.00
2014-8-8,85,78,68,22,20,16,17,11,10,29.04,28.98,19,8,19,0.24
2014-8-9,87,72,0,32,23,-43,36,17,10,29.10,29.01,30,5,30,0.00
2014-8-10,86,73,60,38,30,17,38,22,10,29.18,29.06,26,5,26,0.01
2014-8-11,86,69,58,47,41,32,49,37,15,29.22,29.13,19,6,22,0.02
2014-8-12,85,69,61,56,45,39,83,44,20,29.24,29.08,16,4,16,0.00
2014-8-13,80,67,60,57,51,43,83,59,31,29.88,29.09,13,5,16,0.14
2014-8-14,80,65,-5,61,53,-48,94,68,10,29.86,29.00,19,6,19,0.24
2014-8-15,83,69,56,53,46,37,67,47,21,29.11,29.02,11,4,13,0.00
2014-8-16,87,73,58,43,38,31,42,30,14,29.13,29.03,19,6,21,0.00
2014-8-17,91,75,60,44,35,24,45,27,10,29.14,29.01,17,6,17,0.00
2014-8-18,90,75,62,48,35,21,51,27,10,29.08,28.92,16,6,18,0.01
2014-8-19,80,67,58,52,46,36,72,48,22,29.02,28.89,18,5,21,0.07
2014-8-20,79,66,-12,54,44,-32,82,50,19,29.00,28.93,103,6,103,0.01
2014-8-21,81,68,54,42,36,26,53,32,13,29.06,28.99,19,5,20,0.00
2014-8-22,67,60,52,52,46,36,82,63,36,29.08,29.00,24,6,30,0.21
2014-8-23,74,61,51,55,47,42,83,62,33,29.03,28.94,17,4,17,0.08
2014-8-24,78,66,52,49,42,33,71,44,20,29.03,28.96,20,4,20,0.00
2014-8-25,79,68,55,46,38,30,56,37,17,29.08,28.98,17,4,17,0.00
2014-8-26,74,64,54,52,43,36,84,48,29,29.15,29.03,14,4,14,0.25
2014-8-27,55,52,49,50,47,45,87,83,80,29.14,29.09,6,2,9,0.01
2014-9-1,83,76,64,35,23,17,28,15,10,0.00,0.00,29,10,29,0.14
2014-9-2,87,72,39,32,25,-13,35,18,10,0.00,0.00,19,4,19,0.24
2014-9-3,86,74,58,33,23,6,33,17,10,0.00,0.00,21,4,21,0.24
2014-9-4,78,57,0,46,30,19,58,19,15,0.00,0.00,22,3,22,0.24
2014-9-5,79,65,33,46,40,17,69,45,10,0.00,0.00,106,5,106,0.24
2014-9-6,80,67,54,49,40,30,70,40,16,0.00,0.00,17,5,17,0.01
2014-9-7,81,67,54,48,42,33,66,44,21,0.00,0.00,16,5,16,0.24
2014-9-8,80,69,-1,51,43,-16,70,40,24,0.00,0.00,24,10,24,0.24
2014-9-9,68,59,50,59,53,46,92,81,52,0.00,0.00,17,4,17,0.25
2014-9-10,72,58,48,51,44,32,90,65,23,0.00,0.00,17,4,19,0.01
2014-9-11,78,63,48,44,33,16,64,39,10,0.00,0.00,18,4,18,0.24
2014-9-12,59,54,51,34,30,28,43,40,36,0.00,0.00,7,2,7,0.08
2014-9-13,79,68,57,31,27,23,35,22,14,0.00,0.00,15,4,15,0.08
2014-9-14,81,66,54,45,34,-3,49,33,14,0.00,0.00,52,4,52,0.24
2014-9-15,85,68,55,44,34,20,55,33,10,0.00,0.00,17,4,17,0.24
2014-9-16,83,68,55,50,42,32,68,42,18,0.00,0.00,18,4,18,0.24
2014-9-17,79,61,53,51,47,40,79,62,28,0.00,0.00,16,4,16,0.66
2014-9-18,82,65,50,50,39,22,76,45,11,0.00,0.00,14,3,14,0.01
2014-9-19,83,68,55,52,42,36,59,41,20,0.00,0.00,20,4,20,0.24
2014-9-20,87,71,56,45,37,23,55,34,10,0.00,0.00,22,4,22,0.24
2014-9-21,78,66,55,54,49,41,86,57,30,0.00,0.00,21,5,21,0.83
2014-9-22,74,63,57,58,49,37,89,64,32,0.00,0.00,17,4,17,0.30
2014-9-23,77,62,50,51,40,19,66,46,23,0.00,0.00,21,5,21,0.24
2014-9-24,81,65,40,42,38,7,55,39,17,0.00,0.00,125,2,125,0.24
2014-9-25,82,68,55,50,42,-2,65,41,19,0.00,0.00,15,5,15,0.24
2014-9-26,82,67,54,50,43,19,68,45,10,0.00,0.00,26,6,26,0.24
2014-9-27,78,64,55,51,44,24,66,50,20,0.00,0.00,57,6,57,0.24
2014-9-28,76,55,47,72,47,43,89,76,59,0.00,0.00,21,5,21,1.16
2014-9-29,53,48,13,48,43,4,91,83,61,0.00,0.00,17,4,17,0.35
2014-9-30,61,48,36,42,35,30,84,62,36,0.00,0.00,19,5,19,0.24
2014-10-1,61,51,41,42,34,30,73,55,34,0.00,0.00,25,7,25,0.04
2014-10-2,61,47,0,46,27,-2,57,25,12,29.09,0.00,12,7,12,3.12
2014-10-3,60,50,37,34,29,25,64,46,33,29.18,29.09,10,5,10,0.00
2014-10-4,60,60,60,30,30,30,33,33,33,29.13,28.95,8,8,8,0.00
2014-10-5,72,62,33,33,27,-17,37,28,10,29.01,28.92,13,6,13,0.00
2014-10-6,110,57,44,41,20,7,35,24,10,29.03,28.93,18,4,18,0.00
2014-10-7,73,58,45,33,26,17,43,31,15,29.04,28.97,11,3,29,0.00
2014-10-8,70,59,48,38,31,-4,50,36,10,29.00,28.92,10,3,13,0.00
2014-10-9,61,53,49,47,42,34,84,69,10,28.94,28.85,11,3,15,0.30
2014-10-10,60,52,48,48,46,34,90,80,58,29.04,28.91,8,3,9,0.20
2014-10-11,61,51,44,48,43,33,93,75,59,29.06,28.90,52,3,52,0.17
2014-10-12,57,48,43,37,31,19,66,54,25,28.92,28.69,38,8,40,0.12
2014-10-13,59,46,33,27,23,19,56,43,25,29.06,28.92,15,5,15,0.00
2014-10-14,68,49,36,32,27,23,60,44,22,29.12,29.05,10,3,10,0.00
2014-10-15,72,57,45,35,28,16,53,35,12,29.09,29.06,11,4,11,0.00
2014-10-16,71,56,44,35,25,11,52,32,10,0.00,0.00,18,4,18,0.00
2014-10-17,67,56,44,34,25,10,43,31,18,0.00,0.00,23,4,23,0.00
2014-10-18,67,57,47,37,34,31,56,44,31,0.00,0.00,11,4,12,0.00
2014-10-19,129,57,37,57,39,16,79,54,10,0.00,0.00,105,8,105,0.25
2014-10-20,70,56,47,44,38,32,67,53,26,0.00,0.00,14,4,14,0.00
2014-10-21,64,53,38,46,42,-5,83,65,10,0.00,0.00,27,3,27,0.01
2014-10-22,64,52,43,45,38,32,82,61,37,0.00,0.00,17,4,17,0.00
2014-10-23,68,54,42,39,35,32,66,50,30,0.00,0.00,15,4,15,0.00
2014-10-24,73,57,43,38,32,27,61,42,19,0.00,0.00,13,4,13,0.00
2014-10-25,53,51,50,31,30,28,45,43,42,0.00,0.00,4,3,4,0.00
2014-10-27,59,50,42,17,12,4,28,21,14,0.00,0.00,26,6,26,0.00
2014-10-28,61,47,35,22,13,3,47,27,10,0.00,0.00,14,4,14,0.00
2014-10-29,64,50,36,19,13,6,39,24,11,0.00,0.00,14,4,14,0.00
2014-10-30,69,52,14,49,18,-9,92,28,11,0.00,0.00,10,3,10,0.00
2014-10-31,65,53,40,46,22,-12,98,31,10,0.00,0.00,21,5,21,0.02
2014-11-1,65,52,45,45,40,4,83,65,38,0.00,0.00,34,6,34,0.14
2014-11-2,50,45,42,43,39,36,87,78,64,0.00,0.00,24,3,24,0.27
2014-11-3,50,39,30,38,29,24,89,69,43,0.00,0.00,13,4,13,0.02
2014-11-4,54,40,29,30,24,19,70,53,30,0.00,0.00,12,3,12,0.00
2014-11-5,63,44,32,29,22,14,60,44,19,0.00,0.00,10,4,10,0.00
2014-11-6,62,48,37,30,23,19,56,39,19,0.00,0.00,11,3,12,0.00
2014-11-7,62,48,37,28,24,19,52,39,23,0.00,0.00,11,4,11,0.00
2014-11-8,62,49,37,24,19,14,46,32,18,0.00,0.00,13,4,13,0.00
2014-11-9,62,47,37,29,22,18,63,38,20,0.00,0.00,14,4,14,0.33
2014-11-10,59,46,35,27,18,3,58,36,15,0.00,0.00,30,8,30,0.06
2014-11-11,56,43,29,22,13,1,45,31,20,0.00,0.00,25,4,25,0.00
2014-11-12,52,43,35,31,25,-15,62,49,10,0.00,0.00,33,6,33,0.00
2014-11-13,46,40,20,31,26,5,74,59,46,0.00,40.00,11,4,14,0.00
2014-11-14,45,37,32,36,30,-16,88,78,10,0.00,0.00,52,2,52,0.25
2014-11-15,44,37,33,38,28,-17,91,70,10,0.00,0.00,28,6,28,0.02
2014-11-16,43,32,20,27,10,-6,80,44,12,0.00,0.00,24,6,24,0.00
2014-11-17,37,25,14,18,12,8,78,59,36,0.00,0.00,13,3,13,0.00
2014-11-18,42,28,17,16,12,7,67,52,31,0.00,0.00,13,4,13,0.00
2014-11-19,45,32,20,18,14,10,67,49,30,0.00,0.00,11,3,11,0.00
2014-11-20,47,35,26,20,15,12,60,45,26,0.00,0.00,8,3,8,0.00
2014-11-21,51,38,29,20,16,13,56,42,25,0.00,0.00,10,4,10,0.00
2014-11-22,49,38,28,26,19,16,74,47,30,0.00,0.00,17,5,17,0.00
2014-11-23,34,32,30,26,22,15,83,69,49,0.00,0.00,22,7,22,0.00
2014-11-24,39,29,22,10,7,2,54,41,23,0.00,0.00,30,9,30,0.00
2014-11-25,46,31,14,23,12,1,61,45,28,0.00,0.00,72,8,72,0.01
2014-11-26,55,39,26,24,20,15,62,47,27,0.00,0.00,11,4,11,0.00
2014-11-27,57,42,31,24,20,17,58,43,21,0.00,0.00,11,3,11,0.00
2014-11-28,60,44,35,24,16,4,55,34,11,0.00,0.00,11,4,11,0.00
2014-11-29,57,44,34,15,7,-5,40,24,10,0.00,0.00,21,5,21,0.00
2014-11-30,50,39,32,16,11,4,42,32,21,0.00,0.00,8,3,8,0.00
2014-12-1,51,38,29,20,17,15,58,43,27,0.00,0.00,13,4,13,0.18
2014-12-2,48,38,30,19,17,15,54,42,29,0.00,0.00,5,3,7,0.00
2014-12-3,46,42,37,34,31,15,80,67,37,0.00,0.00,14,3,14,0.00
2014-12-4,42,39,37,39,36,32,91,86,80,0.00,0.00,10,2,10,0.05
2014-12-5,47,39,34,36,33,28,91,80,63,0.00,0.00,9,2,9,0.00
2014-12-6,47,41,35,33,30,27,78,64,56,0.00,0.00,14,5,14,0.00
2014-12-7,52,40,31,35,30,24,83,67,44,0.00,0.00,12,4,12,0.00
2014-12-8,56,42,33,31,26,17,75,54,34,0.00,0.00,8,3,8,0.00
2014-12-9,56,43,33,24,16,3,49,34,22,0.00,0.00,10,4,10,0.00
2014-12-10,54,41,31,23,14,7,57,36,17,0.00,0.00,8,3,8,0.00
2014-12-11,55,42,31,24,21,15,59,44,25,0.00,0.00,10,3,10,0.00
2014-12-12,53,44,36,32,28,23,63,54,44,0.00,40.00,9,4,11,0.00
2014-12-13,46,37,30,32,29,26,91,72,56,0.00,0.00,17,3,17,0.14
2014-12-14,40,30,23,32,24,15,91,78,61,0.00,0.00,17,3,17,0.02
2014-12-15,38,26,17,23,18,12,85,71,51,0.00,0.00,11,3,11,0.00
2014-12-16,45,34,24,29,22,18,78,61,37,0.00,0.00,15,5,17,0.00
2014-12-17,40,33,29,29,26,22,90,73,61,0.00,0.00,10,3,10,0.00
2014-12-18,39,30,26,28,25,20,90,82,70,0.00,0.00,6,2,6,0.05
2014-12-19,38,27,18,24,19,13,84,73,54,0.00,0.00,9,2,9,0.01
2014-12-20,42,30,22,28,22,7,85,74,53,0.00,0.00,10,2,10,0.00
2014-12-21,41,31,25,31,26,21,89,82,65,0.00,0.00,21,2,21,0.00
2014-12-22,42,36,27,33,27,14,87,69,43,0.00,0.00,31,10,31,0.04
2014-12-23,35,26,17,14,4,-3,61,40,20,0.00,0.00,27,7,27,0.00
2014-12-24,38,25,13,12,4,-2,54,41,25,0.00,0.00,9,3,9,0.00
2014-12-25,32,28,19,26,18,11,79,67,47,0.00,0.00,11,3,11,0.04
2014-12-26,46,22,12,30,16,6,86,78,54,0.00,0.00,19,4,19,0.00
2014-12-27,27,16,7,14,8,0,79,70,54,0.00,0.00,11,3,11,0.00
2014-12-28,38,16,9,15,8,3,81,71,55,0.00,0.00,11,2,11,0.00
2014-12-29,33,20,13,16,10,4,78,67,38,0.00,0.00,17,4,17,0.00
2014-12-30,34,22,13,15,9,2,69,56,43,0.00,0.00,15,7,15,0.00
2014-12-31,42,27,16,30,13,8,71,57,40,0.00,0.00,16,5,16,0.30
2015-1-1,33,25,14,23,17,7,84,72,51,0.00,0.00,18,5,18,0.00
2015-1-2,35,23,12,18,10,5,76,58,29,0.00,0.00,9,4,9,0.02